createdAt,value
2023-03-25T00:00:07.630Z,1161.8800
2023-03-25T00:00:18.733Z,1163.9060
2023-03-25T00:00:30.068Z,1162.8920
2023-03-25T00:00:41.124Z,1159.8610
2023-03-25T00:00:52.185Z,1166.9580
2023-03-25T00:01:03.230Z,1172.0811
2023-03-25T00:01:14.250Z,1165.9390
2023-03-25T00:01:25.310Z,1159.8610
2023-03-25T00:01:36.367Z,1160.8700
2023-03-25T00:01:47.446Z,1169.0020
2023-03-25T00:01:58.555Z,1163.9060
2023-03-25T00:02:09.719Z,1163.9060
2023-03-25T00:02:20.793Z,1166.9580
2023-03-25T00:02:31.958Z,1164.9210
2023-03-25T00:02:43.127Z,1162.8920
2023-03-25T00:02:54.217Z,1175.1760
2023-03-25T00:03:05.378Z,1169.0020
2023-03-25T00:03:16.449Z,1171.0530
2023-03-25T00:03:27.534Z,1164.9210
2023-03-25T00:03:38.546Z,1166.9580
2023-03-25T00:03:49.617Z,1162.8920
2023-03-25T00:04:00.682Z,1158.8540
2023-03-25T00:04:11.808Z,1163.9060
2023-03-25T00:04:22.986Z,1166.9580
2023-03-25T00:04:34.067Z,1159.8610
2023-03-25T00:04:45.121Z,1161.8800
2023-03-25T00:04:56.297Z,1172.0811
2023-03-25T00:05:07.374Z,1169.0020
2023-03-25T00:05:18.543Z,1160.8700
2023-03-25T00:05:29.608Z,1169.0020
2023-03-25T00:05:40.683Z,1161.8800
2023-03-25T00:05:51.883Z,1162.8920
2023-03-25T00:06:03.196Z,1162.8920
2023-03-25T00:06:14.264Z,1160.8700
2023-03-25T00:06:25.313Z,1171.0530
2023-03-25T00:06:36.382Z,1173.1110
2023-03-25T00:06:47.419Z,1164.9210
2023-03-25T00:06:58.494Z,1166.9580
2023-03-25T00:07:09.598Z,1165.9390
2023-03-25T00:07:20.657Z,1165.9390
2023-03-25T00:07:31.701Z,1166.9580
2023-03-25T00:07:42.763Z,1157.8490
2023-03-25T00:07:53.818Z,1175.1760
2023-03-25T00:08:04.890Z,1160.8700
2023-03-25T00:08:15.951Z,1171.0530
2023-03-25T00:08:26.994Z,1164.9210
2023-03-25T00:08:38.101Z,1164.9210
2023-03-25T00:08:49.145Z,1169.0020
2023-03-25T00:09:00.196Z,1175.1760
2023-03-25T00:09:11.247Z,1160.8700
2023-03-25T00:09:22.313Z,1161.8800
2023-03-25T00:09:33.364Z,1162.8920
2023-03-25T00:09:44.422Z,1165.9390
2023-03-25T00:09:55.488Z,1162.8920
2023-03-25T00:10:06.515Z,1174.1420
2023-03-25T00:10:17.568Z,1166.9580
2023-03-25T00:10:28.617Z,1164.9210
2023-03-25T00:10:39.646Z,1169.0020
2023-03-25T00:10:50.715Z,1162.8920
2023-03-25T00:11:01.737Z,1169.0020
2023-03-25T00:11:12.795Z,1169.0020
2023-03-25T00:11:23.824Z,1164.9210
2023-03-25T00:11:34.877Z,1169.0020
2023-03-25T00:11:45.916Z,1165.9390
2023-03-25T00:11:56.992Z,1171.0530
2023-03-25T00:12:08.037Z,1169.0020
2023-03-25T00:12:19.912Z,1170.0260
2023-03-25T00:12:31.039Z,1160.8700
2023-03-25T00:12:42.082Z,1169.0020
2023-03-25T00:12:53.138Z,1162.8920
2023-03-25T00:13:04.197Z,1166.9580
2023-03-25T00:13:15.239Z,1164.9210
2023-03-25T00:13:26.338Z,1171.0530
2023-03-25T00:13:37.376Z,1169.0020
2023-03-25T00:13:48.459Z,1175.1760
2023-03-25T00:13:59.497Z,1160.8700
2023-03-25T00:14:10.551Z,1164.9210
2023-03-25T00:14:21.666Z,1169.0020
2023-03-25T00:14:32.733Z,1160.8700
2023-03-25T00:14:43.783Z,1166.9580
2023-03-25T00:14:55.546Z,1160.8700
2023-03-25T00:15:06.656Z,1164.9210
2023-03-25T00:15:17.718Z,1173.1110
2023-03-25T00:15:28.756Z,1170.0260
2023-03-25T00:15:39.817Z,1162.8920
2023-03-25T00:15:51.069Z,1170.0260
2023-03-25T00:16:02.242Z,1165.9390
2023-03-25T00:16:13.306Z,1167.9790
2023-03-25T00:16:24.414Z,1162.8920
2023-03-25T00:16:35.480Z,1164.9210
2023-03-25T00:16:46.543Z,1171.0530
2023-03-25T00:16:57.623Z,1167.9790
2023-03-25T00:17:08.661Z,1164.9210
2023-03-25T00:17:19.757Z,1163.9060
2023-03-25T00:17:30.827Z,1165.9390
2023-03-25T00:17:41.887Z,1169.0020
2023-03-25T00:17:52.975Z,1162.8920
2023-03-25T00:18:04.062Z,1173.1110
2023-03-25T00:18:15.093Z,1164.9210
2023-03-25T00:18:26.152Z,1165.9390
2023-03-25T00:18:37.209Z,1166.9580
2023-03-25T00:18:48.296Z,1162.8920
2023-03-25T00:18:59.336Z,1163.9060
2023-03-25T00:19:10.376Z,1157.8490
2023-03-25T00:19:21.449Z,1175.1760
2023-03-25T00:19:32.492Z,1173.1110
2023-03-25T00:19:43.540Z,1161.8800
2023-03-25T00:19:54.588Z,1164.9210
2023-03-25T00:20:05.656Z,1173.1110
2023-03-25T00:20:16.821Z,1161.8800
2023-03-25T00:20:27.882Z,1162.8920
2023-03-25T00:20:38.928Z,1163.9060
2023-03-25T00:20:49.994Z,1160.8700
2023-03-25T00:21:01.082Z,1173.1110
2023-03-25T00:21:12.119Z,1169.0020
2023-03-25T00:21:23.201Z,1169.0020
2023-03-25T00:21:34.239Z,1167.9790
2023-03-25T00:21:45.283Z,1163.9060
2023-03-25T00:21:56.333Z,1166.9580
2023-03-25T00:22:07.394Z,1171.0530
2023-03-25T00:22:18.466Z,1164.9210
2023-03-25T00:22:29.608Z,1172.0811
2023-03-25T00:22:40.846Z,1177.2490
2023-03-25T00:22:52.192Z,1169.0020
2023-03-25T00:23:03.221Z,1173.1110
2023-03-25T00:23:14.273Z,1175.1760
2023-03-25T00:23:25.301Z,1171.0530
2023-03-25T00:23:36.354Z,1165.9390
2023-03-25T00:23:47.416Z,1169.0020
2023-03-25T00:23:58.459Z,1165.9390
2023-03-25T00:24:09.522Z,1169.0020
2023-03-25T00:24:20.587Z,1165.9390
2023-03-25T00:24:31.647Z,1170.0260
2023-03-25T00:24:42.709Z,1167.9790
2023-03-25T00:24:53.744Z,1169.0020
2023-03-25T00:25:04.802Z,1165.9390
2023-03-25T00:25:15.872Z,1169.0020
2023-03-25T00:25:26.892Z,1171.0530
2023-03-25T00:25:37.956Z,1162.8920
2023-03-25T00:25:49.273Z,1177.2490
2023-03-25T00:26:00.747Z,1173.1110
2023-03-25T00:26:11.832Z,1171.0530
2023-03-25T00:26:22.914Z,1170.0260
2023-03-25T00:26:33.946Z,1172.0811
2023-03-25T00:26:45.042Z,1164.9210
2023-03-25T00:26:56.073Z,1166.9580
2023-03-25T00:27:07.128Z,1166.9580
2023-03-25T00:27:18.326Z,1178.2880
2023-03-25T00:27:29.359Z,1177.2490
2023-03-25T00:27:40.405Z,1176.2111
2023-03-25T00:27:51.442Z,1179.3290
2023-03-25T00:28:02.502Z,1175.1760
2023-03-25T00:28:13.587Z,1171.0530
2023-03-25T00:28:24.606Z,1177.2490
2023-03-25T00:28:35.673Z,1178.2880
2023-03-25T00:28:46.705Z,1179.3290
2023-03-25T00:28:57.769Z,1174.1420
2023-03-25T00:29:08.847Z,1173.1110
2023-03-25T00:29:19.869Z,1183.5110
2023-03-25T00:29:30.927Z,1173.1110
2023-03-25T00:29:41.985Z,1181.4160
2023-03-25T00:29:53.027Z,1175.1760
2023-03-25T00:30:04.056Z,1178.2880
2023-03-25T00:30:15.125Z,1185.6130
2023-03-25T00:30:26.171Z,1183.5110
2023-03-25T00:30:37.278Z,1186.6670
2023-03-25T00:30:48.410Z,1177.2490
2023-03-25T00:30:59.467Z,1181.4160
2023-03-25T00:31:10.522Z,1185.6130
2023-03-25T00:31:21.632Z,1185.6130
2023-03-25T00:31:32.686Z,1180.3710
2023-03-25T00:31:43.736Z,1185.6130
2023-03-25T00:31:54.810Z,1185.6130
2023-03-25T00:32:05.847Z,1185.6130
2023-03-25T00:32:16.917Z,1185.6130
2023-03-25T00:32:28.012Z,1183.5110
2023-03-25T00:32:39.109Z,1183.5110
2023-03-25T00:32:50.570Z,1184.5610
2023-03-25T00:33:01.904Z,1184.5610
2023-03-25T00:33:12.988Z,1187.7220
2023-03-25T00:33:24.026Z,1181.4160
2023-03-25T00:33:35.093Z,1188.7800
2023-03-25T00:33:46.152Z,1179.3290
2023-03-25T00:33:57.214Z,1189.8400
2023-03-25T00:34:08.326Z,1189.8400
2023-03-25T00:34:19.390Z,1188.7800
2023-03-25T00:34:30.474Z,1185.6130
2023-03-25T00:34:41.526Z,1183.5110
2023-03-25T00:34:52.582Z,1189.8400
2023-03-25T00:35:03.624Z,1194.0970
2023-03-25T00:35:14.686Z,1194.0970
2023-03-25T00:35:25.757Z,1194.0970
2023-03-25T00:35:36.860Z,1200.5400
2023-03-25T00:35:48.067Z,1185.6130
2023-03-25T00:35:59.565Z,1191.9640
2023-03-25T00:36:10.701Z,1184.5610
2023-03-25T00:36:21.744Z,1187.7220
2023-03-25T00:36:32.781Z,1187.7220
2023-03-25T00:36:43.821Z,1196.2371
2023-03-25T00:36:54.877Z,1189.8400
2023-03-25T00:37:05.999Z,1189.8400
2023-03-25T00:37:17.055Z,1191.9640
2023-03-25T00:37:28.128Z,1193.0291
2023-03-25T00:37:39.167Z,1189.8400
2023-03-25T00:37:50.176Z,1196.2371
2023-03-25T00:38:01.236Z,1200.5400
2023-03-25T00:38:12.304Z,1200.5400
2023-03-25T00:38:23.327Z,1199.4611
2023-03-25T00:38:34.426Z,1196.2371
2023-03-25T00:38:45.505Z,1189.8400
2023-03-25T00:38:56.590Z,1196.2371
2023-03-25T00:39:07.621Z,1200.5400
2023-03-25T00:39:18.673Z,1196.2371
2023-03-25T00:39:29.724Z,1197.3090
2023-03-25T00:39:40.784Z,1202.7030
2023-03-25T00:39:51.841Z,1196.2371
2023-03-25T00:40:02.926Z,1194.0970
2023-03-25T00:40:14.022Z,1201.6200
2023-03-25T00:40:25.050Z,1202.7030
2023-03-25T00:40:36.110Z,1204.8740
2023-03-25T00:40:47.157Z,1211.4340
2023-03-25T00:40:58.231Z,1205.9620
2023-03-25T00:41:09.303Z,1200.5400
2023-03-25T00:41:20.311Z,1203.7870
2023-03-25T00:41:31.368Z,1200.5400
2023-03-25T00:41:42.429Z,1201.6200
2023-03-25T00:41:53.522Z,1205.9620
2023-03-25T00:42:04.600Z,1202.7030
2023-03-25T00:42:15.690Z,1207.0520
2023-03-25T00:42:26.773Z,1211.4340
2023-03-25T00:42:37.826Z,1214.7410
2023-03-25T00:42:48.869Z,1200.5400
2023-03-25T00:42:59.916Z,1211.4340
2023-03-25T00:43:10.983Z,1205.9620
2023-03-25T00:43:22.034Z,1209.2390
2023-03-25T00:43:33.085Z,1202.7030
2023-03-25T00:43:44.182Z,1213.6360
2023-03-25T00:43:55.187Z,1216.9550
2023-03-25T00:44:06.249Z,1210.3350
2023-03-25T00:44:17.326Z,1211.4340
2023-03-25T00:44:28.380Z,1213.6360
2023-03-25T00:44:39.415Z,1219.1780
2023-03-25T00:44:50.471Z,1218.0660
2023-03-25T00:45:01.521Z,1211.4340
2023-03-25T00:45:12.667Z,1207.0520
2023-03-25T00:45:23.716Z,1221.4091
2023-03-25T00:45:34.787Z,1215.8470
2023-03-25T00:45:45.826Z,1222.5270
2023-03-25T00:45:56.897Z,1211.4340
2023-03-25T00:46:08.106Z,1213.6360
2023-03-25T00:46:19.222Z,1221.4091
2023-03-25T00:46:30.325Z,1209.2390
2023-03-25T00:46:41.432Z,1204.8740
2023-03-25T00:46:52.528Z,1218.0660
2023-03-25T00:47:03.570Z,1218.0660
2023-03-25T00:47:14.662Z,1216.9550
2023-03-25T00:47:25.736Z,1218.0660
2023-03-25T00:47:36.837Z,1221.4091
2023-03-25T00:47:47.972Z,1222.5270
2023-03-25T00:47:59.056Z,1221.4091
2023-03-25T00:48:10.129Z,1227.0220
2023-03-25T00:48:21.161Z,1220.2930
2023-03-25T00:48:32.212Z,1222.5270
2023-03-25T00:48:43.264Z,1220.2930
2023-03-25T00:48:54.308Z,1223.6479
2023-03-25T00:49:05.360Z,1222.5270
2023-03-25T00:49:16.416Z,1222.5270
2023-03-25T00:49:27.494Z,1216.9550
2023-03-25T00:49:38.539Z,1220.2930
2023-03-25T00:49:49.605Z,1224.7710
2023-03-25T00:50:00.647Z,1229.2820
2023-03-25T00:50:11.688Z,1223.6479
2023-03-25T00:50:22.752Z,1222.5270
2023-03-25T00:50:33.823Z,1227.0220
2023-03-25T00:50:44.880Z,1220.2930
2023-03-25T00:50:55.933Z,1214.7410
2023-03-25T00:51:06.992Z,1221.4091
2023-03-25T00:51:18.051Z,1221.4091
2023-03-25T00:51:29.113Z,1224.7710
2023-03-25T00:51:52.518Z,1230.4150
2023-03-25T00:51:57.131Z,1207.0520
2023-03-25T00:52:08.191Z,1218.0660
2023-03-25T00:52:19.274Z,1222.5270
2023-03-25T00:52:30.345Z,1221.4091
2023-03-25T00:52:41.399Z,1218.0660
2023-03-25T00:52:52.481Z,1225.8950
2023-03-25T00:53:03.527Z,1216.9550
2023-03-25T00:53:14.593Z,1223.6479
2023-03-25T00:53:25.676Z,1222.5270
2023-03-25T00:53:36.761Z,1224.7710
2023-03-25T00:53:47.805Z,1222.5270
2023-03-25T00:53:58.855Z,1227.0220
2023-03-25T00:54:09.907Z,1219.1780
2023-03-25T00:54:20.956Z,1227.0220
2023-03-25T00:54:32.001Z,1231.5500
2023-03-25T00:54:43.070Z,1231.5500
2023-03-25T00:54:54.128Z,1224.7710
2023-03-25T00:55:05.167Z,1219.1780
2023-03-25T00:55:16.230Z,1222.5270
2023-03-25T00:55:27.283Z,1227.0220
2023-03-25T00:55:38.334Z,1233.8260
2023-03-25T00:55:49.674Z,1229.2820
2023-03-25T00:56:00.965Z,1238.4041
2023-03-25T00:56:12.020Z,1229.2820
2023-03-25T00:56:23.078Z,1238.4041
2023-03-25T00:56:34.158Z,1229.2820
2023-03-25T00:56:45.303Z,1229.2820
2023-03-25T00:56:56.402Z,1238.4041
2023-03-25T00:57:07.557Z,1239.5540
2023-03-25T00:57:18.668Z,1236.1110
2023-03-25T00:57:29.736Z,1243.0170
2023-03-25T00:57:40.767Z,1231.5500
2023-03-25T00:57:51.825Z,1228.1510
2023-03-25T00:58:02.879Z,1239.5540
2023-03-25T00:58:13.932Z,1238.4041
2023-03-25T00:58:24.957Z,1240.7061
2023-03-25T00:58:36.023Z,1233.8260
2023-03-25T00:58:47.106Z,1234.9680
2023-03-25T00:58:58.167Z,1240.7061
2023-03-25T00:59:09.189Z,1244.1750
2023-03-25T00:59:20.238Z,1237.2570
2023-03-25T00:59:31.303Z,1231.5500
2023-03-25T00:59:42.333Z,1236.1110
2023-03-25T00:59:53.407Z,1241.8600
2023-03-25T01:00:04.478Z,1248.8311
2023-03-25T01:00:15.523Z,1243.0170
2023-03-25T01:00:26.583Z,1240.7061
2023-03-25T01:00:37.645Z,1239.5540
2023-03-25T01:00:48.668Z,1246.4990
2023-03-25T01:00:59.748Z,1245.3361
2023-03-25T01:01:10.889Z,1248.8311
2023-03-25T01:01:21.993Z,1247.6639
2023-03-25T01:01:33.027Z,1233.8260
2023-03-25T01:01:44.095Z,1245.3361
2023-03-25T01:01:55.224Z,1247.6639
2023-03-25T01:02:06.337Z,1240.7061
2023-03-25T01:02:17.423Z,1251.1720
2023-03-25T01:02:28.621Z,1240.7061
2023-03-25T01:02:39.817Z,1252.3450
2023-03-25T01:02:50.968Z,1243.0170
2023-03-25T01:03:02.114Z,1240.7061
2023-03-25T01:03:13.225Z,1247.6639
2023-03-25T01:03:24.356Z,1248.8311
2023-03-25T01:03:35.574Z,1252.3450
2023-03-25T01:03:46.749Z,1246.4990
2023-03-25T01:03:58.108Z,1252.3450
2023-03-25T01:04:09.262Z,1250.0000
2023-03-25T01:04:20.326Z,1250.0000
2023-03-25T01:04:31.516Z,1245.3361
2023-03-25T01:04:43.191Z,1245.3361
2023-03-25T01:04:54.386Z,1246.4990
2023-03-25T01:05:05.473Z,1254.6990
2023-03-25T01:05:16.539Z,1251.1720
2023-03-25T01:05:27.598Z,1254.6990
2023-03-25T01:05:38.673Z,1254.6990
2023-03-25T01:05:49.882Z,1247.6639
2023-03-25T01:06:01.005Z,1257.0620
2023-03-25T01:06:12.071Z,1246.4990
2023-03-25T01:06:23.120Z,1248.8311
2023-03-25T01:06:34.176Z,1257.0620
2023-03-25T01:06:45.255Z,1254.6990
2023-03-25T01:06:56.311Z,1260.6230
2023-03-25T01:07:07.389Z,1260.6230
2023-03-25T01:07:18.427Z,1258.2469
2023-03-25T01:07:29.535Z,1257.0620
2023-03-25T01:07:40.577Z,1255.8800
2023-03-25T01:07:51.672Z,1253.5210
2023-03-25T01:08:02.704Z,1247.6639
2023-03-25T01:08:13.742Z,1261.8149
2023-03-25T01:08:24.794Z,1258.2469
2023-03-25T01:08:35.906Z,1265.4030
2023-03-25T01:08:46.957Z,1251.1720
2023-03-25T01:08:58.034Z,1266.6030
2023-03-25T01:09:09.100Z,1264.2050
2023-03-25T01:09:20.165Z,1254.6990
2023-03-25T01:09:31.271Z,1261.8149
2023-03-25T01:09:42.304Z,1264.2050
2023-03-25T01:09:53.411Z,1254.6990
2023-03-25T01:10:04.448Z,1257.0620
2023-03-25T01:10:15.502Z,1259.4340
2023-03-25T01:10:26.559Z,1263.0090
2023-03-25T01:10:37.626Z,1267.8060
2023-03-25T01:10:48.661Z,1269.0110
2023-03-25T01:10:59.737Z,1265.4030
2023-03-25T01:11:10.785Z,1264.2050
2023-03-25T01:11:21.820Z,1264.2050
2023-03-25T01:11:32.865Z,1267.8060
2023-03-25T01:11:43.917Z,1266.6030
2023-03-25T01:11:54.979Z,1273.8550
2023-03-25T01:12:06.072Z,1261.8149
2023-03-25T01:12:17.097Z,1267.8060
2023-03-25T01:12:28.143Z,1260.6230
2023-03-25T01:12:39.232Z,1267.8060
2023-03-25T01:12:50.262Z,1271.4290
2023-03-25T01:13:01.317Z,1261.8149
2023-03-25T01:13:12.343Z,1266.6030
2023-03-25T01:13:23.438Z,1261.8149
2023-03-25T01:13:34.468Z,1273.8550
2023-03-25T01:13:45.517Z,1267.8060
2023-03-25T01:13:56.595Z,1267.8060
2023-03-25T01:14:07.659Z,1273.8550
2023-03-25T01:14:18.707Z,1275.0720
2023-03-25T01:14:29.797Z,1266.6030
2023-03-25T01:14:40.825Z,1278.7360
2023-03-25T01:14:51.886Z,1276.2910
2023-03-25T01:15:02.963Z,1276.2910
2023-03-25T01:15:14.026Z,1269.0110
2023-03-25T01:15:25.074Z,1273.8550
2023-03-25T01:15:36.208Z,1271.4290
2023-03-25T01:15:47.308Z,1267.8060
2023-03-25T01:15:58.381Z,1272.6410
2023-03-25T01:16:09.447Z,1276.2910
2023-03-25T01:16:20.510Z,1276.2910
2023-03-25T01:16:31.545Z,1265.4030
2023-03-25T01:16:42.554Z,1275.0720
2023-03-25T01:16:53.607Z,1279.9620
2023-03-25T01:17:04.671Z,1265.4030
2023-03-25T01:17:15.716Z,1269.0110
2023-03-25T01:17:26.836Z,1273.8550
2023-03-25T01:17:38.010Z,1266.6030
2023-03-25T01:17:49.188Z,1273.8550
2023-03-25T01:18:00.335Z,1282.4210
2023-03-25T01:18:11.398Z,1273.8550
2023-03-25T01:18:22.425Z,1275.0720
2023-03-25T01:18:33.470Z,1277.5120
2023-03-25T01:18:44.483Z,1277.5120
2023-03-25T01:18:55.533Z,1269.0110
2023-03-25T01:19:06.615Z,1269.0110
2023-03-25T01:19:17.683Z,1271.4290
2023-03-25T01:19:28.736Z,1273.8550
2023-03-25T01:19:39.781Z,1277.5120
2023-03-25T01:19:50.826Z,1281.1899
2023-03-25T01:20:01.882Z,1270.2190
2023-03-25T01:20:12.948Z,1273.8550
2023-03-25T01:20:24.006Z,1281.1899
2023-03-25T01:20:35.079Z,1278.7360
2023-03-25T01:20:46.131Z,1282.4210
2023-03-25T01:20:57.190Z,1278.7360
2023-03-25T01:21:08.215Z,1272.6410
2023-03-25T01:21:19.288Z,1276.2910
2023-03-25T01:21:30.350Z,1271.4290
2023-03-25T01:21:41.359Z,1276.2910
2023-03-25T01:21:52.505Z,1271.4290
2023-03-25T01:22:03.553Z,1283.6541
2023-03-25T01:22:14.610Z,1276.2910
2023-03-25T01:22:25.650Z,1278.7360
2023-03-25T01:22:36.724Z,1287.3669
2023-03-25T01:22:47.775Z,1273.8550
2023-03-25T01:22:58.858Z,1282.4210
2023-03-25T01:23:09.892Z,1273.8550
2023-03-25T01:23:20.943Z,1273.8550
2023-03-25T01:23:31.997Z,1281.1899
2023-03-25T01:23:43.041Z,1276.2910
2023-03-25T01:23:54.117Z,1281.1899
2023-03-25T01:24:05.218Z,1281.1899
2023-03-25T01:24:16.257Z,1283.6541
2023-03-25T01:24:27.317Z,1283.6541
2023-03-25T01:24:38.385Z,1272.6410
2023-03-25T01:24:49.433Z,1273.8550
2023-03-25T01:25:00.490Z,1282.4210
2023-03-25T01:25:11.551Z,1286.1270
2023-03-25T01:25:22.615Z,1282.4210
2023-03-25T01:25:33.665Z,1288.6100
2023-03-25T01:25:44.694Z,1275.0720
2023-03-25T01:25:55.786Z,1281.1899
2023-03-25T01:26:06.825Z,1281.1899
2023-03-25T01:26:17.881Z,1276.2910
2023-03-25T01:26:28.968Z,1284.8890
2023-03-25T01:26:40.018Z,1288.6100
2023-03-25T01:26:51.061Z,1283.6541
2023-03-25T01:27:02.111Z,1283.6541
2023-03-25T01:27:13.147Z,1281.1899
2023-03-25T01:27:24.208Z,1288.6100
2023-03-25T01:27:35.264Z,1286.1270
2023-03-25T01:27:46.308Z,1283.6541
2023-03-25T01:27:57.397Z,1291.1030
2023-03-25T01:28:08.484Z,1282.4210
2023-03-25T01:28:19.505Z,1279.9620
2023-03-25T01:28:30.580Z,1275.0720
2023-03-25T01:28:41.676Z,1277.5120
2023-03-25T01:28:52.766Z,1276.2910
2023-03-25T01:29:03.852Z,1275.0720
2023-03-25T01:29:14.901Z,1288.6100
2023-03-25T01:29:25.949Z,1276.2910
2023-03-25T01:29:37.008Z,1286.1270
2023-03-25T01:29:48.046Z,1286.1270
2023-03-25T01:29:59.097Z,1277.5120
2023-03-25T01:30:10.175Z,1279.9620
2023-03-25T01:30:21.242Z,1286.1270
2023-03-25T01:30:32.305Z,1288.6100
2023-03-25T01:30:43.327Z,1276.2910
2023-03-25T01:30:54.383Z,1278.7360
2023-03-25T01:31:05.487Z,1286.1270
2023-03-25T01:31:16.562Z,1288.6100
2023-03-25T01:31:27.764Z,1283.6541
2023-03-25T01:31:38.948Z,1283.6541
2023-03-25T01:31:50.072Z,1281.1899
2023-03-25T01:32:01.256Z,1286.1270
2023-03-25T01:32:12.315Z,1292.3521
2023-03-25T01:32:23.432Z,1293.6050
2023-03-25T01:32:34.549Z,1282.4210
2023-03-25T01:32:45.626Z,1278.7360
2023-03-25T01:32:56.723Z,1277.5120
2023-03-25T01:33:07.805Z,1288.6100
2023-03-25T01:33:18.867Z,1279.9620
2023-03-25T01:33:29.925Z,1291.1030
2023-03-25T01:33:40.976Z,1296.1169
2023-03-25T01:33:52.036Z,1281.1899
2023-03-25T01:34:03.116Z,1284.8890
2023-03-25T01:34:14.127Z,1282.4210
2023-03-25T01:34:25.194Z,1281.1899
2023-03-25T01:34:36.244Z,1291.1030
2023-03-25T01:34:47.294Z,1279.9620
2023-03-25T01:34:58.392Z,1292.3521
2023-03-25T01:35:09.437Z,1288.6100
2023-03-25T01:35:20.485Z,1287.3669
2023-03-25T01:35:31.576Z,1281.1899
2023-03-25T01:35:42.627Z,1292.3521
2023-03-25T01:35:53.679Z,1289.8550
2023-03-25T01:36:04.785Z,1296.1169
2023-03-25T01:36:15.863Z,1291.1030
2023-03-25T01:36:26.917Z,1287.3669
2023-03-25T01:36:37.936Z,1287.3669
2023-03-25T01:36:48.996Z,1286.1270
2023-03-25T01:37:00.061Z,1296.1169
2023-03-25T01:37:11.114Z,1291.1030
2023-03-25T01:37:22.176Z,1296.1169
2023-03-25T01:37:33.227Z,1306.2620
2023-03-25T01:37:44.253Z,1288.6100
2023-03-25T01:37:55.313Z,1291.1030
2023-03-25T01:38:06.354Z,1288.6100
2023-03-25T01:38:17.434Z,1284.8890
2023-03-25T01:38:28.504Z,1292.3521
2023-03-25T01:38:39.525Z,1303.7111
2023-03-25T01:38:50.626Z,1286.1270
2023-03-25T01:39:01.694Z,1292.3521
2023-03-25T01:39:12.726Z,1297.3760
2023-03-25T01:39:23.767Z,1296.1169
2023-03-25T01:39:34.816Z,1283.6541
2023-03-25T01:39:45.858Z,1297.3760
2023-03-25T01:39:56.937Z,1292.3521
2023-03-25T01:40:07.960Z,1286.1270
2023-03-25T01:40:19.048Z,1288.6100
2023-03-25T01:40:30.112Z,1286.1270
2023-03-25T01:40:41.164Z,1287.3669
2023-03-25T01:40:52.299Z,1286.1270
2023-03-25T01:41:03.376Z,1293.6050
2023-03-25T01:41:14.430Z,1284.8890
2023-03-25T01:41:29.142Z,1291.1030
2023-03-25T01:41:49.675Z,1286.1270
2023-03-25T01:41:59.378Z,1286.1270
2023-03-25T01:42:10.441Z,1282.4210
2023-03-25T01:42:21.483Z,1276.2910
2023-03-25T01:42:32.556Z,1281.1899
2023-03-25T01:42:43.620Z,1283.6541
2023-03-25T01:42:54.706Z,1286.1270
2023-03-25T01:43:05.769Z,1281.1899
2023-03-25T01:43:16.847Z,1288.6100
2023-03-25T01:43:27.926Z,1276.2910
2023-03-25T01:43:39.015Z,1282.4210
2023-03-25T01:43:50.053Z,1284.8890
2023-03-25T01:44:01.130Z,1288.6100
2023-03-25T01:44:12.211Z,1288.6100
2023-03-25T01:44:23.237Z,1281.1899
2023-03-25T01:44:34.306Z,1276.2910
2023-03-25T01:44:45.362Z,1278.7360
2023-03-25T01:44:56.431Z,1282.4210
2023-03-25T01:45:07.469Z,1279.9620
2023-03-25T01:45:18.503Z,1278.7360
2023-03-25T01:45:29.540Z,1283.6541
2023-03-25T01:45:40.590Z,1282.4210
2023-03-25T01:45:51.768Z,1286.1270
2023-03-25T01:46:03.163Z,1283.6541
2023-03-25T01:46:14.331Z,1281.1899
2023-03-25T01:46:25.441Z,1287.3669
2023-03-25T01:46:36.491Z,1282.4210
2023-03-25T01:46:47.560Z,1287.3669
2023-03-25T01:46:58.670Z,1283.6541
2023-03-25T01:47:09.758Z,1278.7360
2023-03-25T01:47:20.857Z,1289.8550
2023-03-25T01:47:31.956Z,1287.3669
2023-03-25T01:47:42.999Z,1282.4210
2023-03-25T01:47:54.137Z,1276.2910
2023-03-25T01:48:05.206Z,1284.8890
2023-03-25T01:48:16.289Z,1287.3669
2023-03-25T01:48:27.348Z,1291.1030
2023-03-25T01:48:38.404Z,1286.1270
2023-03-25T01:48:49.449Z,1281.1899
2023-03-25T01:49:00.558Z,1288.6100
2023-03-25T01:49:11.565Z,1293.6050
2023-03-25T01:49:22.592Z,1284.8890
2023-03-25T01:49:33.711Z,1281.1899
2023-03-25T01:49:44.794Z,1286.1270
2023-03-25T01:49:55.824Z,1284.8890
2023-03-25T01:50:06.892Z,1277.5120
2023-03-25T01:50:17.918Z,1293.6050
2023-03-25T01:50:29.033Z,1292.3521
2023-03-25T01:50:40.121Z,1286.1270
2023-03-25T01:50:51.134Z,1287.3669
2023-03-25T01:51:02.197Z,1292.3521
2023-03-25T01:51:13.248Z,1294.8590
2023-03-25T01:51:24.301Z,1288.6100
2023-03-25T01:51:35.331Z,1291.1030
2023-03-25T01:51:46.398Z,1293.6050
2023-03-25T01:51:57.465Z,1284.8890
2023-03-25T01:52:08.500Z,1283.6541
2023-03-25T01:52:19.571Z,1297.3760
2023-03-25T01:52:30.633Z,1292.3521
2023-03-25T01:52:41.710Z,1296.1169
2023-03-25T01:52:52.746Z,1286.1270
2023-03-25T01:53:03.816Z,1287.3669
2023-03-25T01:53:14.877Z,1288.6100
2023-03-25T01:53:25.952Z,1282.4210
2023-03-25T01:53:37.009Z,1287.3669
2023-03-25T01:53:48.070Z,1296.1169
2023-03-25T01:53:59.136Z,1291.1030
2023-03-25T01:54:10.179Z,1292.3521
2023-03-25T01:54:21.244Z,1293.6050
2023-03-25T01:54:32.270Z,1293.6050
2023-03-25T01:54:43.360Z,1291.1030
2023-03-25T01:54:54.476Z,1291.1030
2023-03-25T01:55:05.487Z,1293.6050
2023-03-25T01:55:16.529Z,1288.6100
2023-03-25T01:55:27.605Z,1297.3760
2023-03-25T01:55:38.670Z,1293.6050
2023-03-25T01:55:49.857Z,1286.1270
2023-03-25T01:56:01.218Z,1284.8890
2023-03-25T01:56:12.270Z,1281.1899
2023-03-25T01:56:23.301Z,1286.1270
2023-03-25T01:56:34.366Z,1296.1169
2023-03-25T01:56:45.415Z,1286.1270
2023-03-25T01:56:56.568Z,1298.6379
2023-03-25T01:57:07.640Z,1293.6050
2023-03-25T01:57:18.692Z,1286.1270
2023-03-25T01:57:29.748Z,1296.1169
2023-03-25T01:57:40.772Z,1293.6050
2023-03-25T01:57:51.850Z,1289.8550
2023-03-25T01:58:02.898Z,1288.6100
2023-03-25T01:58:13.972Z,1288.6100
2023-03-25T01:58:25.000Z,1289.8550
2023-03-25T01:58:36.088Z,1281.1899
2023-03-25T01:58:47.159Z,1293.6050
2023-03-25T01:58:58.223Z,1292.3521
2023-03-25T01:59:09.258Z,1288.6100
2023-03-25T01:59:20.341Z,1282.4210
2023-03-25T01:59:31.371Z,1289.8550
2023-03-25T01:59:42.407Z,1288.6100
2023-03-25T01:59:53.513Z,1298.6379
2023-03-25T02:00:04.637Z,1293.6050
2023-03-25T02:00:15.718Z,1287.3669
2023-03-25T02:00:26.744Z,1296.1169
2023-03-25T02:00:37.817Z,1296.1169
2023-03-25T02:00:48.843Z,1288.6100
2023-03-25T02:01:00.002Z,1294.8590
2023-03-25T02:01:11.060Z,1301.1700
2023-03-25T02:01:22.215Z,1286.1270
2023-03-25T02:01:33.267Z,1296.1169
2023-03-25T02:01:44.329Z,1292.3521
2023-03-25T02:01:55.340Z,1293.6050
2023-03-25T02:02:06.404Z,1292.3521
2023-03-25T02:02:17.453Z,1291.1030
2023-03-25T02:02:28.539Z,1284.8890
2023-03-25T02:02:39.631Z,1286.1270
2023-03-25T02:02:50.720Z,1281.1899
2023-03-25T02:03:01.805Z,1286.1270
2023-03-25T02:03:12.867Z,1292.3521
2023-03-25T02:03:23.941Z,1297.3760
2023-03-25T02:03:35.043Z,1301.1700
2023-03-25T02:03:46.352Z,1293.6050
2023-03-25T02:03:57.776Z,1291.1030
2023-03-25T02:04:08.828Z,1298.6379
2023-03-25T02:04:19.874Z,1292.3521
2023-03-25T02:04:30.899Z,1287.3669
2023-03-25T02:04:41.938Z,1287.3669
2023-03-25T02:04:52.979Z,1296.1169
2023-03-25T02:05:04.038Z,1286.1270
2023-03-25T02:05:15.145Z,1297.3760
2023-03-25T02:05:26.172Z,1286.1270
2023-03-25T02:05:37.218Z,1296.1169
2023-03-25T02:05:48.417Z,1292.3521
2023-03-25T02:05:59.529Z,1291.1030
2023-03-25T02:06:10.549Z,1297.3760
2023-03-25T02:06:21.609Z,1287.3669
2023-03-25T02:06:32.648Z,1299.9030
2023-03-25T02:06:43.656Z,1291.1030